sensor_id;sensor_type;location;lat;lon;timestamp;temperature;humidity
21563;DHT22;10942;47.894;11.424;2022-08-03T00:01:43;18.10;99.90
21563;DHT22;10942;47.894;11.424;2022-08-03T00:04:10;18.10;99.90
21563;DHT22;10942;47.894;11.424;2022-08-03T00:06:36;18.10;99.90
21563;DHT22;10942;47.894;11.424;2022-08-03T00:09:03;18.00;99.90
21563;DHT22;10942;47.894;11.424;2022-08-03T00:11:29;18.00;99.90
21563;DHT22;10942;47.894;11.424;2022-08-03T00:13:55;17.90;99.90
21563;DHT22;10942;47.894;11.424;2022-08-03T00:16:21;17.90;99.90
21563;DHT22;10942;47.894;11.424;2022-08-03T00:18:47;17.90;99.90
21563;DHT22;10942;47.894;11.424;2022-08-03T00:21:12;17.80;99.90
21563;DHT22;10942;47.894;11.424;2022-08-03T00:23:38;17.80;99.90
21563;DHT22;10942;47.894;11.424;2022-08-03T00:26:04;17.80;99.90
21563;DHT22;10942;47.894;11.424;2022-08-03T00:28:29;17.80;99.90
21563;DHT22;10942;47.894;11.424;2022-08-03T00:30:55;17.70;99.90
21563;DHT22;10942;47.894;11.424;2022-08-03T00:33:21;17.70;99.90
21563;DHT22;10942;47.894;11.424;2022-08-03T00:35:47;17.70;99.90
21563;DHT22;10942;47.894;11.424;2022-08-03T00:38:13;17.60;99.90
21563;DHT22;10942;47.894;11.424;2022-08-03T00:40:39;17.60;99.90
21563;DHT22;10942;47.894;11.424;2022-08-03T00:43:06;17.60;99.90
21563;DHT22;10942;47.894;11.424;2022-08-03T00:45:35;17.60;99.90
21563;DHT22;10942;47.894;11.424;2022-08-03T00:48:01;17.50;99.90
21563;DHT22;10942;47.894;11.424;2022-08-03T00:50:29;17.50;99.90
21563;DHT22;10942;47.894;11.424;2022-08-03T00:52:57;17.40;99.90
21563;DHT22;10942;47.894;11.424;2022-08-03T00:55:23;17.40;99.90
21563;DHT22;10942;47.894;11.424;2022-08-03T00:57:50;17.30;99.90
21563;DHT22;10942;47.894;11.424;2022-08-03T01:00:20;17.30;99.90
21563;DHT22;10942;47.894;11.424;2022-08-03T01:02:46;17.30;99.90
21563;DHT22;10942;47.894;11.424;2022-08-03T01:05:12;17.20;99.90
21563;DHT22;10942;47.894;11.424;2022-08-03T01:08:33;17.10;99.90
21563;DHT22;10942;47.894;11.424;2022-08-03T01:11:02;17.10;99.90
21563;DHT22;10942;47.894;11.424;2022-08-03T01:13:47;17.10;99.90
21563;DHT22;10942;47.894;11.424;2022-08-03T01:16:32;17.10;99.90
21563;DHT22;10942;47.894;11.424;2022-08-03T01:22:04;17.00;99.90
21563;DHT22;10942;47.894;11.424;2022-08-03T01:30:30;17.00;99.90
21563;DHT22;10942;47.894;11.424;2022-08-03T01:33:03;17.00;99.90
21563;DHT22;10942;47.894;11.424;2022-08-03T01:38:04;17.00;99.90
21563;DHT22;10942;47.894;11.424;2022-08-03T01:40:33;16.90;99.90
21563;DHT22;10942;47.894;11.424;2022-08-03T01:43:02;16.80;99.90
21563;DHT22;10942;47.894;11.424;2022-08-03T01:45:29;16.80;99.90
21563;DHT22;10942;47.894;11.424;2022-08-03T01:47:57;16.80;99.90
21563;DHT22;10942;47.894;11.424;2022-08-03T01:50:26;16.80;99.90
21563;DHT22;10942;47.894;11.424;2022-08-03T01:52:55;16.80;99.90
21563;DHT22;10942;47.894;11.424;2022-08-03T01:55:22;16.80;99.90
21563;DHT22;10942;47.894;11.424;2022-08-03T01:57:50;16.80;99.90
21563;DHT22;10942;47.894;11.424;2022-08-03T02:00:17;16.70;99.90
21563;DHT22;10942;47.894;11.424;2022-08-03T02:02:46;16.70;99.90
21563;DHT22;10942;47.894;11.424;2022-08-03T02:05:14;16.70;99.90
21563;DHT22;10942;47.894;11.424;2022-08-03T02:07:41;16.70;99.90
21563;DHT22;10942;47.894;11.424;2022-08-03T02:10:08;16.70;99.90
21563;DHT22;10942;47.894;11.424;2022-08-03T02:12:37;16.60;99.90
21563;DHT22;10942;47.894;11.424;2022-08-03T02:15:04;16.60;99.90
21563;DHT22;10942;47.894;11.424;2022-08-03T02:17:32;16.60;99.90
21563;DHT22;10942;47.894;11.424;2022-08-03T02:20:00;16.50;99.90
21563;DHT22;10942;47.894;11.424;2022-08-03T02:22:28;16.50;99.90
21563;DHT22;10942;47.894;11.424;2022-08-03T02:24:54;16.40;99.90
21563;DHT22;10942;47.894;11.424;2022-08-03T02:27:23;16.40;99.90
21563;DHT22;10942;47.894;11.424;2022-08-03T02:29:54;16.30;99.90
21563;DHT22;10942;47.894;11.424;2022-08-03T02:32:27;16.30;99.90
21563;DHT22;10942;47.894;11.424;2022-08-03T02:34:55;16.30;99.90
21563;DHT22;10942;47.894;11.424;2022-08-03T02:37:23;16.30;99.90
21563;DHT22;10942;47.894;11.424;2022-08-03T02:39:51;16.30;99.90
21563;DHT22;10942;47.894;11.424;2022-08-03T02:42:21;16.20;99.90
21563;DHT22;10942;47.894;11.424;2022-08-03T02:44:49;16.20;99.90
21563;DHT22;10942;47.894;11.424;2022-08-03T02:47:17;16.20;99.90
21563;DHT22;10942;47.894;11.424;2022-08-03T02:49:47;16.20;99.90
21563;DHT22;10942;47.894;11.424;2022-08-03T02:52:15;16.20;99.90
21563;DHT22;10942;47.894;11.424;2022-08-03T02:54:42;16.20;99.90
21563;DHT22;10942;47.894;11.424;2022-08-03T02:57:09;16.10;99.90
21563;DHT22;10942;47.894;11.424;2022-08-03T02:59:36;16.10;99.90
21563;DHT22;10942;47.894;11.424;2022-08-03T03:02:03;16.10;99.90
21563;DHT22;10942;47.894;11.424;2022-08-03T03:04:29;16.10;99.90
21563;DHT22;10942;47.894;11.424;2022-08-03T03:06:56;16.10;99.90
21563;DHT22;10942;47.894;11.424;2022-08-03T03:09:22;16.10;99.90
21563;DHT22;10942;47.894;11.424;2022-08-03T04:45:35;15.70;99.90
21563;DHT22;10942;47.894;11.424;2022-08-03T04:48:02;15.70;99.90
21563;DHT22;10942;47.894;11.424;2022-08-03T04:50:28;15.50;99.90
21563;DHT22;10942;47.894;11.424;2022-08-03T04:53:04;15.60;99.90
21563;DHT22;10942;47.894;11.424;2022-08-03T04:55:32;15.60;99.90
21563;DHT22;10942;47.894;11.424;2022-08-03T04:57:58;15.70;99.90
21563;DHT22;10942;47.894;11.424;2022-08-03T05:00:25;15.70;99.90
21563;DHT22;10942;47.894;11.424;2022-08-03T05:02:51;15.70;99.90
21563;DHT22;10942;47.894;11.424;2022-08-03T05:05:18;15.80;99.90
21563;DHT22;10942;47.894;11.424;2022-08-03T05:07:44;15.80;99.90
21563;DHT22;10942;47.894;11.424;2022-08-03T05:10:11;15.90;99.90
21563;DHT22;10942;47.894;11.424;2022-08-03T05:12:38;16.00;99.90
21563;DHT22;10942;47.894;11.424;2022-08-03T05:15:04;16.30;99.90
21563;DHT22;10942;47.894;11.424;2022-08-03T05:19:59;18.50;99.90
21563;DHT22;10942;47.894;11.424;2022-08-03T05:24:52;19.60;99.90
21563;DHT22;10942;47.894;11.424;2022-08-03T05:27:17;20.20;99.90
21563;DHT22;10942;47.894;11.424;2022-08-03T05:29:44;20.80;99.90
21563;DHT22;10942;47.894;11.424;2022-08-03T05:32:10;21.40;99.90
21563;DHT22;10942;47.894;11.424;2022-08-03T05:34:36;21.90;99.90
21563;DHT22;10942;47.894;11.424;2022-08-03T05:37:02;22.30;99.90
21563;DHT22;10942;47.894;11.424;2022-08-03T05:39:27;22.70;99.90
21563;DHT22;10942;47.894;11.424;2022-08-03T05:41:53;22.50;99.90
21563;DHT22;10942;47.894;11.424;2022-08-03T05:44:19;22.80;99.90
21563;DHT22;10942;47.894;11.424;2022-08-03T06:03:48;24.90;99.90
21563;DHT22;10942;47.894;11.424;2022-08-03T06:06:15;24.50;99.90
21563;DHT22;10942;47.894;11.424;2022-08-03T06:08:42;24.60;99.90
21563;DHT22;10942;47.894;11.424;2022-08-03T06:13:35;25.80;99.90
21563;DHT22;10942;47.894;11.424;2022-08-03T06:16:01;25.80;99.90
21563;DHT22;10942;47.894;11.424;2022-08-03T06:18:27;26.10;99.90
21563;DHT22;10942;47.894;11.424;2022-08-03T06:23:19;26.20;99.90
21563;DHT22;10942;47.894;11.424;2022-08-03T06:25:45;26.40;99.90
21563;DHT22;10942;47.894;11.424;2022-08-03T06:28:12;27.60;99.90
